createdAt,value
2017-10-24T00:01:32.830Z,2.00
2017-10-24T00:04:01.108Z,1.83
2017-10-24T00:06:28.716Z,1.50
2017-10-24T00:08:56.333Z,2.00
2017-10-24T00:11:23.905Z,2.00
2017-10-24T00:13:51.717Z,2.05
2017-10-24T00:16:19.332Z,2.87
2017-10-24T00:18:46.954Z,1.92
2017-10-24T00:21:14.562Z,2.05
2017-10-24T00:23:42.181Z,2.45
2017-10-24T00:26:09.845Z,2.25
2017-10-24T00:28:37.449Z,2.00
2017-10-24T00:31:05.085Z,2.15
2017-10-24T00:33:32.662Z,2.62
2017-10-24T00:36:00.208Z,2.50
2017-10-24T00:38:27.866Z,2.30
2017-10-24T00:40:55.454Z,2.50
2017-10-24T00:43:23.055Z,2.58
2017-10-24T00:45:50.660Z,2.40
2017-10-24T00:48:18.292Z,1.90
2017-10-24T00:50:45.868Z,2.47
2017-10-24T00:53:13.472Z,2.25
2017-10-24T00:55:41.089Z,2.17
2017-10-24T00:58:08.916Z,2.30
2017-10-24T01:00:36.551Z,2.40
2017-10-24T01:03:04.348Z,2.70
2017-10-24T01:05:31.898Z,2.20
2017-10-24T01:07:59.573Z,2.30
2017-10-24T01:10:27.150Z,2.40
2017-10-24T01:12:54.747Z,2.50
2017-10-24T01:15:22.496Z,2.70
2017-10-24T01:17:50.101Z,2.50
2017-10-24T01:20:17.685Z,2.80
2017-10-24T01:22:45.400Z,2.33
2017-10-24T01:25:12.981Z,2.85
2017-10-24T01:27:41.021Z,2.42
2017-10-24T01:30:08.762Z,2.03
2017-10-24T01:32:36.604Z,2.50
2017-10-24T01:35:04.169Z,2.30
2017-10-24T01:37:31.856Z,2.53
2017-10-24T01:39:59.708Z,2.20
2017-10-24T01:42:27.329Z,2.40
2017-10-24T01:44:55.248Z,2.67
2017-10-24T01:47:22.831Z,2.63
2017-10-24T01:49:50.410Z,2.85
2017-10-24T01:52:18.129Z,2.53
2017-10-24T01:54:46.008Z,2.25
2017-10-24T01:57:13.628Z,2.85
2017-10-24T01:59:41.280Z,2.78
2017-10-24T02:02:08.952Z,3.00
2017-10-24T02:04:36.551Z,2.60
2017-10-24T02:07:04.123Z,2.65
2017-10-24T02:09:31.764Z,2.35
2017-10-24T02:12:00.041Z,1.95
2017-10-24T02:14:27.640Z,2.35
2017-10-24T02:16:55.259Z,2.10
2017-10-24T02:19:22.948Z,2.00
2017-10-24T02:21:50.565Z,2.28
2017-10-24T02:24:18.183Z,1.70
2017-10-24T02:26:45.736Z,2.08
2017-10-24T02:29:13.315Z,2.15
2017-10-24T02:31:40.936Z,2.28
2017-10-24T02:34:08.507Z,2.05
2017-10-24T02:36:36.405Z,2.00
2017-10-24T02:39:04.034Z,2.10
2017-10-24T02:41:31.839Z,1.80
2017-10-24T02:43:59.418Z,1.95
2017-10-24T02:46:27.002Z,1.90
2017-10-24T02:48:54.816Z,2.20
2017-10-24T02:51:22.462Z,2.10
2017-10-24T02:53:50.172Z,2.47
2017-10-24T02:56:17.816Z,2.20
2017-10-24T02:58:45.499Z,2.22
2017-10-24T03:01:13.109Z,2.00
2017-10-24T03:03:40.748Z,1.90
2017-10-24T03:06:08.597Z,1.85
2017-10-24T03:08:36.269Z,2.00
2017-10-24T03:11:04.072Z,1.85
2017-10-24T03:13:31.689Z,2.12
2017-10-24T03:15:59.292Z,1.90
2017-10-24T03:18:26.878Z,2.20
2017-10-24T03:20:54.509Z,2.30
2017-10-24T03:23:22.253Z,1.92
2017-10-24T03:25:50.043Z,2.62
2017-10-24T03:28:17.703Z,2.55
2017-10-24T03:30:45.366Z,2.25
2017-10-24T03:33:12.933Z,2.12
2017-10-24T03:35:40.503Z,2.12
2017-10-24T03:38:08.139Z,2.00
2017-10-24T03:40:36.049Z,2.40
2017-10-24T03:43:03.679Z,1.75
2017-10-24T03:45:31.342Z,2.20
2017-10-24T03:47:58.910Z,2.20
2017-10-24T03:50:26.475Z,2.53
2017-10-24T03:52:54.123Z,2.40
2017-10-24T03:55:21.978Z,2.12
2017-10-24T03:57:49.544Z,3.55
2017-10-24T04:00:17.265Z,2.10
2017-10-24T04:02:44.827Z,2.50
2017-10-24T04:05:12.693Z,2.20
2017-10-24T04:07:40.310Z,2.53
2017-10-24T04:10:07.907Z,2.55
2017-10-24T04:12:35.503Z,2.42
2017-10-24T04:15:03.172Z,3.20
2017-10-24T04:17:30.752Z,2.90
2017-10-24T04:19:58.531Z,3.17
2017-10-24T04:22:26.164Z,3.70
2017-10-24T04:24:53.715Z,3.40
2017-10-24T04:27:21.269Z,3.50
2017-10-24T04:29:48.881Z,3.80
2017-10-24T04:32:16.530Z,3.40
2017-10-24T04:34:44.124Z,3.75
2017-10-24T04:37:11.693Z,3.80
2017-10-24T04:39:39.306Z,2.90
2017-10-24T04:42:06.877Z,3.70
2017-10-24T04:44:34.483Z,4.82
2017-10-24T04:47:02.093Z,3.25
2017-10-24T04:49:29.684Z,4.30
2017-10-24T04:51:57.556Z,2.75
2017-10-24T04:54:25.160Z,3.15
2017-10-24T04:56:52.725Z,2.75
2017-10-24T04:59:20.341Z,2.43
2017-10-24T05:01:47.952Z,2.37
2017-10-24T05:04:15.505Z,2.80
2017-10-24T05:06:43.392Z,3.17
2017-10-24T05:09:11.013Z,3.15
2017-10-24T05:11:38.920Z,2.60
2017-10-24T05:14:06.723Z,2.60
2017-10-24T05:16:34.401Z,2.37
2017-10-24T05:19:01.984Z,2.33
2017-10-24T05:21:29.560Z,2.92
2017-10-24T05:23:57.178Z,3.17
2017-10-24T05:26:24.808Z,4.35
2017-10-24T05:28:52.766Z,4.22
2017-10-24T05:31:20.371Z,4.55
2017-10-24T05:33:47.930Z,4.80
2017-10-24T05:36:15.496Z,4.45
2017-10-24T05:38:43.136Z,3.80
2017-10-24T05:41:11.074Z,5.95
2017-10-24T05:43:38.644Z,4.40
2017-10-24T05:46:06.252Z,4.30
2017-10-24T05:48:34.061Z,3.30
2017-10-24T05:51:01.698Z,3.53
2017-10-24T05:53:29.326Z,3.80
2017-10-24T05:55:56.936Z,3.75
2017-10-24T05:58:24.761Z,3.22
2017-10-24T06:00:52.409Z,3.35
2017-10-24T06:03:20.345Z,4.03
2017-10-24T06:05:48.140Z,6.18
2017-10-24T06:08:15.752Z,4.45
2017-10-24T06:10:43.395Z,4.60
2017-10-24T06:13:10.971Z,4.30
2017-10-24T06:15:38.559Z,3.90
2017-10-24T06:18:06.106Z,4.35
2017-10-24T06:20:33.660Z,3.87
2017-10-24T06:23:01.275Z,4.47
2017-10-24T06:25:28.850Z,3.87
2017-10-24T06:27:56.414Z,4.28
2017-10-24T06:30:24.043Z,4.10
2017-10-24T06:32:51.915Z,4.78
2017-10-24T06:35:19.524Z,4.40
2017-10-24T06:37:47.158Z,4.50
2017-10-24T06:40:14.761Z,4.80
2017-10-24T06:42:42.360Z,4.93
2017-10-24T06:45:09.985Z,4.62
2017-10-24T06:47:37.557Z,4.95
2017-10-24T06:50:05.154Z,4.55
2017-10-24T06:52:32.763Z,4.70
2017-10-24T06:55:00.330Z,6.10
2017-10-24T06:57:27.885Z,6.20
2017-10-24T06:59:55.433Z,6.03
2017-10-24T07:02:23.025Z,5.45
2017-10-24T07:04:50.665Z,7.07
2017-10-24T07:07:18.242Z,5.47
2017-10-24T07:09:45.871Z,5.10
2017-10-24T07:12:13.745Z,6.95
2017-10-24T07:14:41.277Z,7.07
2017-10-24T07:17:08.889Z,5.50
2017-10-24T07:19:36.449Z,5.23
2017-10-24T07:22:03.978Z,4.68
2017-10-24T07:24:31.553Z,4.40
2017-10-24T07:26:59.124Z,4.35
2017-10-24T07:29:26.691Z,6.20
2017-10-24T07:31:54.276Z,5.30
2017-10-24T07:34:21.830Z,4.60
2017-10-24T07:36:49.471Z,4.57
2017-10-24T07:39:17.018Z,5.00
2017-10-24T07:41:44.870Z,5.07
2017-10-24T07:44:12.390Z,4.60
2017-10-24T07:46:39.964Z,4.70
2017-10-24T07:49:07.829Z,4.68
2017-10-24T07:51:35.395Z,4.65
2017-10-24T07:54:02.985Z,5.12
2017-10-24T07:56:30.827Z,6.40
2017-10-24T07:58:58.351Z,6.50
2017-10-24T08:01:25.930Z,5.45
2017-10-24T08:03:53.463Z,6.40
2017-10-24T08:06:20.998Z,5.87
2017-10-24T08:08:48.838Z,5.60
2017-10-24T08:11:16.334Z,4.27
2017-10-24T08:13:44.117Z,4.60
2017-10-24T08:16:11.674Z,4.57
2017-10-24T08:18:39.447Z,4.60
2017-10-24T08:21:07.015Z,4.90
2017-10-24T08:23:34.601Z,4.68
2017-10-24T08:26:02.388Z,4.25
2017-10-24T08:28:29.914Z,4.90
2017-10-24T08:30:57.859Z,4.70
2017-10-24T08:33:25.621Z,3.97
2017-10-24T08:35:53.405Z,4.30
2017-10-24T08:38:20.977Z,4.62
2017-10-24T08:40:48.486Z,4.60
2017-10-24T08:43:16.002Z,5.43
2017-10-24T08:45:43.825Z,5.17
2017-10-24T08:48:11.394Z,4.80
2017-10-24T08:50:38.956Z,4.93
2017-10-24T08:53:06.528Z,4.60
2017-10-24T08:55:34.335Z,4.20
2017-10-24T08:58:01.910Z,5.20
2017-10-24T09:00:29.654Z,5.80
2017-10-24T09:02:57.175Z,6.10
2017-10-24T09:05:24.732Z,4.73
2017-10-24T09:07:52.339Z,4.63
2017-10-24T09:13:27.346Z,3.93
2017-10-24T09:16:07.485Z,3.50
2017-10-24T09:18:35.075Z,5.10
2017-10-24T09:24:00.788Z,4.67
2017-10-24T09:26:44.022Z,5.23
2017-10-24T09:29:11.668Z,5.43
2017-10-24T09:31:40.122Z,5.10
2017-10-24T09:34:07.682Z,5.67
2017-10-24T09:36:35.245Z,5.80
2017-10-24T09:39:02.803Z,5.80
2017-10-24T09:41:30.655Z,4.63
2017-10-24T09:43:58.406Z,5.13
2017-10-24T09:46:42.766Z,4.80
2017-10-24T09:49:10.308Z,4.27
2017-10-24T09:51:42.866Z,4.33
2017-10-24T09:54:10.377Z,5.00
2017-10-24T09:56:43.944Z,3.97
2017-10-24T09:59:17.856Z,5.20
2017-10-24T10:01:48.971Z,6.47
2017-10-24T10:04:16.534Z,6.10
2017-10-24T10:06:53.031Z,6.17
2017-10-24T10:09:20.636Z,5.60
2017-10-24T10:11:48.236Z,5.90
2017-10-24T10:14:15.857Z,6.70
2017-10-24T10:16:43.382Z,7.03
2017-10-24T10:19:10.947Z,5.43
2017-10-24T10:21:38.533Z,4.60
2017-10-24T10:24:06.066Z,5.10
2017-10-24T10:26:33.844Z,4.80
2017-10-24T10:29:01.448Z,4.67
2017-10-24T10:31:29.069Z,5.20
2017-10-24T10:33:57.485Z,5.00
2017-10-24T10:36:25.010Z,4.73
2017-10-24T10:38:52.582Z,5.00
2017-10-24T10:41:20.108Z,5.13
2017-10-24T10:43:47.624Z,5.03
2017-10-24T10:46:15.205Z,5.07
2017-10-24T10:48:42.714Z,5.23
2017-10-24T10:51:10.498Z,4.80
2017-10-24T10:53:38.084Z,4.33
2017-10-24T10:56:05.585Z,5.20
2017-10-24T10:58:33.355Z,4.87
2017-10-24T11:01:01.474Z,4.80
2017-10-24T11:03:29.008Z,4.50
2017-10-24T11:05:56.555Z,5.03
2017-10-24T11:08:24.958Z,4.87
2017-10-24T11:10:52.878Z,5.47
2017-10-24T11:13:20.835Z,6.03
2017-10-24T11:15:48.492Z,6.10
2017-10-24T11:18:16.053Z,6.20
2017-10-24T11:20:43.590Z,7.40
2017-10-24T11:23:11.369Z,7.07
2017-10-24T11:25:38.932Z,5.83
2017-10-24T11:28:06.468Z,5.60
2017-10-24T11:30:34.045Z,4.53
2017-10-24T11:33:01.552Z,5.23
2017-10-24T11:35:29.081Z,6.40
2017-10-24T11:37:56.655Z,6.30
2017-10-24T11:40:24.323Z,6.70
2017-10-24T11:42:51.891Z,6.57
2017-10-24T11:45:19.597Z,5.43
2017-10-24T11:47:47.123Z,7.20
2017-10-24T11:50:14.625Z,6.50
2017-10-24T11:52:42.235Z,6.50
2017-10-24T11:55:09.828Z,6.10
2017-10-24T11:57:37.713Z,4.90
2017-10-24T12:00:07.678Z,5.20
2017-10-24T12:02:35.249Z,4.10
2017-10-24T12:05:02.771Z,4.00
2017-10-24T12:07:30.415Z,3.40
2017-10-24T12:09:58.282Z,4.20
2017-10-24T12:12:25.839Z,3.97
2017-10-24T12:14:53.475Z,3.70
2017-10-24T12:17:20.983Z,4.23
2017-10-24T12:19:48.509Z,4.93
2017-10-24T12:22:16.098Z,4.73
2017-10-24T12:24:43.665Z,4.80
2017-10-24T12:27:11.562Z,5.53
2017-10-24T12:29:39.217Z,5.57
2017-10-24T12:32:06.830Z,4.90
2017-10-24T12:34:34.342Z,4.10
2017-10-24T12:37:02.490Z,3.37
2017-10-24T12:39:30.083Z,3.70
2017-10-24T12:41:58.052Z,4.00
2017-10-24T12:44:28.075Z,3.37
2017-10-24T12:47:10.531Z,3.53
2017-10-24T12:52:44.466Z,3.00
2017-10-24T12:55:12.022Z,3.57
2017-10-24T12:57:57.201Z,3.80
2017-10-24T13:00:24.789Z,3.80
2017-10-24T13:02:52.378Z,5.10
2017-10-24T13:05:20.368Z,4.30
2017-10-24T13:07:47.921Z,3.67
2017-10-24T13:10:15.460Z,4.90
2017-10-24T13:12:43.054Z,4.97
2017-10-24T13:15:10.610Z,4.20
2017-10-24T13:17:38.148Z,3.57
2017-10-24T13:20:05.703Z,4.20
2017-10-24T13:22:33.311Z,3.30
2017-10-24T13:25:00.850Z,3.20
2017-10-24T13:27:29.214Z,3.30
2017-10-24T13:29:56.790Z,4.47
2017-10-24T13:32:24.447Z,4.33
2017-10-24T13:34:51.972Z,4.23
2017-10-24T13:37:19.771Z,4.40
2017-10-24T13:39:47.340Z,5.17
2017-10-24T13:42:14.848Z,4.90
2017-10-24T13:44:42.373Z,4.37
2017-10-24T13:47:10.205Z,5.70
2017-10-24T13:49:37.737Z,6.27
2017-10-24T13:52:05.251Z,7.60
2017-10-24T13:54:32.823Z,7.47
2017-10-24T13:57:00.396Z,7.33
2017-10-24T13:59:27.911Z,8.33
2017-10-24T14:01:55.509Z,6.17
2017-10-24T14:04:28.792Z,5.77
2017-10-24T14:07:01.998Z,5.47
2017-10-24T14:09:35.094Z,5.73
2017-10-24T14:12:02.929Z,5.93
2017-10-24T14:14:30.478Z,6.33
2017-10-24T14:16:58.793Z,7.53
2017-10-24T14:19:26.377Z,6.40
2017-10-24T14:21:53.921Z,5.20
2017-10-24T14:24:21.443Z,5.43
2017-10-24T14:26:49.112Z,5.00
2017-10-24T14:29:16.627Z,6.40
2017-10-24T14:31:44.228Z,6.10
2017-10-24T14:34:11.742Z,7.90
2017-10-24T14:36:39.695Z,8.57
2017-10-24T14:39:07.811Z,6.90
2017-10-24T14:41:35.327Z,7.70
2017-10-24T14:44:02.840Z,8.80
2017-10-24T14:46:30.501Z,10.20
2017-10-24T14:48:58.246Z,9.27
2017-10-24T14:51:25.814Z,10.03
2017-10-24T14:53:53.754Z,9.60
2017-10-24T14:56:21.303Z,8.80
2017-10-24T14:58:48.833Z,8.60
2017-10-24T15:01:16.438Z,12.77
2017-10-24T15:03:43.980Z,11.40
2017-10-24T15:06:11.543Z,9.87
2017-10-24T15:08:39.136Z,9.10
2017-10-24T15:11:06.660Z,9.37
2017-10-24T15:13:34.271Z,8.93
2017-10-24T15:16:01.920Z,7.50
2017-10-24T15:18:29.708Z,8.77
2017-10-24T15:20:57.248Z,8.67
2017-10-24T15:23:24.854Z,9.37
2017-10-24T15:25:52.402Z,8.10
2017-10-24T15:28:19.955Z,7.53
2017-10-24T15:30:47.538Z,8.27
2017-10-24T15:33:15.066Z,8.00
2017-10-24T15:35:42.579Z,7.30
2017-10-24T15:38:10.121Z,6.33
2017-10-24T15:40:37.645Z,7.40
2017-10-24T15:43:05.427Z,10.27
2017-10-24T15:45:32.977Z,8.53
2017-10-24T15:48:00.483Z,8.20
2017-10-24T15:50:29.257Z,7.47
2017-10-24T15:52:56.841Z,8.50
2017-10-24T15:55:24.392Z,11.20
2017-10-24T15:57:52.053Z,12.77
2017-10-24T16:00:19.852Z,9.50
2017-10-24T16:02:47.394Z,8.70
2017-10-24T16:05:14.978Z,7.53
2017-10-24T16:07:42.606Z,9.03
2017-10-24T16:10:10.231Z,9.50
2017-10-24T16:12:38.338Z,7.33
2017-10-24T16:15:05.902Z,7.57
2017-10-24T16:17:33.437Z,6.93
2017-10-24T16:20:01.661Z,7.77
2017-10-24T16:22:29.299Z,7.97
2017-10-24T16:24:56.827Z,8.27
2017-10-24T16:27:24.358Z,6.60
2017-10-24T16:29:51.926Z,8.30
2017-10-24T16:32:19.490Z,8.20
2017-10-24T16:34:47.064Z,8.37
2017-10-24T16:37:14.632Z,8.00
2017-10-24T16:39:42.286Z,7.20
2017-10-24T16:42:09.854Z,7.40
2017-10-24T16:44:37.933Z,35.20
2017-10-24T16:47:05.486Z,9.37
2017-10-24T16:49:33.058Z,10.20
2017-10-24T16:52:00.866Z,12.07
2017-10-24T16:54:28.504Z,6.87
2017-10-24T16:56:56.056Z,7.70
2017-10-24T16:59:23.663Z,8.77
2017-10-24T17:01:51.295Z,9.00
2017-10-24T17:04:19.154Z,8.63
2017-10-24T17:06:46.742Z,8.33
2017-10-24T17:09:15.105Z,9.77
2017-10-24T17:11:42.629Z,8.00
2017-10-24T17:14:10.429Z,6.80
2017-10-24T17:16:37.990Z,6.80
2017-10-24T17:19:05.625Z,7.90
2017-10-24T17:21:33.175Z,9.27
2017-10-24T17:24:00.889Z,7.13
2017-10-24T17:26:28.730Z,7.27
2017-10-24T17:28:56.608Z,6.63
2017-10-24T17:31:24.232Z,6.33
2017-10-24T17:33:51.813Z,8.63
2017-10-24T17:36:19.398Z,6.63
2017-10-24T17:38:46.998Z,8.67
2017-10-24T17:41:14.596Z,7.90
2017-10-24T17:43:42.228Z,7.20
2017-10-24T17:46:10.187Z,7.80
2017-10-24T17:48:38.056Z,7.10
2017-10-24T17:51:05.914Z,9.27
2017-10-24T17:53:33.506Z,9.80
2017-10-24T17:56:01.465Z,9.00
2017-10-24T17:58:29.835Z,8.57
2017-10-24T18:00:57.435Z,9.17
2017-10-24T18:03:24.997Z,8.47
2017-10-24T18:05:52.538Z,7.97
2017-10-24T18:08:20.094Z,9.07
2017-10-24T18:10:47.693Z,8.80
2017-10-24T18:13:16.127Z,7.73
2017-10-24T18:15:43.683Z,9.17
2017-10-24T18:18:11.218Z,8.93
2017-10-24T18:20:38.802Z,8.70
2017-10-24T18:23:07.081Z,8.03
2017-10-24T18:25:34.714Z,7.87
2017-10-24T18:28:02.294Z,7.63
2017-10-24T18:30:30.155Z,7.67
2017-10-24T18:32:57.871Z,7.80
2017-10-24T18:35:25.667Z,7.63
2017-10-24T18:37:53.251Z,7.03
2017-10-24T18:40:20.845Z,6.67
2017-10-24T18:42:48.763Z,7.47
2017-10-24T18:45:16.342Z,7.40
2017-10-24T18:47:43.882Z,7.40
2017-10-24T18:50:11.643Z,6.97
2017-10-24T18:52:40.748Z,7.03
2017-10-24T18:55:08.476Z,6.70
2017-10-24T18:57:36.055Z,6.87
2017-10-24T19:00:06.004Z,7.70
2017-10-24T19:02:34.423Z,7.73
2017-10-24T19:05:01.978Z,7.40
2017-10-24T19:07:30.324Z,7.30
2017-10-24T19:09:58.108Z,6.70
2017-10-24T19:12:25.797Z,7.40
2017-10-24T19:14:54.240Z,6.40
2017-10-24T19:17:22.139Z,7.20
2017-10-24T19:19:49.703Z,6.63
2017-10-24T19:22:17.338Z,6.60
2017-10-24T19:24:45.081Z,6.30
2017-10-24T19:27:13.059Z,5.50
2017-10-24T19:29:41.125Z,6.40
2017-10-24T19:32:08.875Z,6.80
2017-10-24T19:34:36.455Z,7.10
2017-10-24T19:37:04.195Z,7.13
2017-10-24T19:39:31.841Z,7.00
2017-10-24T19:41:59.636Z,6.40
2017-10-24T19:44:27.402Z,5.80
2017-10-24T19:46:55.011Z,6.60
2017-10-24T19:49:22.669Z,5.30
2017-10-24T19:51:50.215Z,6.47
2017-10-24T19:54:17.824Z,6.00
2017-10-24T19:56:45.390Z,5.03
2017-10-24T19:59:13.087Z,5.13
2017-10-24T20:01:40.661Z,5.10
2017-10-24T20:04:08.217Z,5.43
2017-10-24T20:06:35.734Z,5.40
2017-10-24T20:09:03.419Z,4.97
2017-10-24T20:11:31.005Z,5.17
2017-10-24T20:13:58.579Z,5.00
2017-10-24T20:16:26.834Z,6.30
2017-10-24T20:18:54.671Z,5.30
2017-10-24T20:21:22.938Z,5.20
2017-10-24T20:23:50.566Z,5.10
2017-10-24T20:26:18.083Z,5.30
2017-10-24T20:28:45.630Z,5.60
2017-10-24T20:31:13.182Z,4.70
2017-10-24T20:33:40.737Z,5.03
2017-10-24T20:36:08.257Z,4.90
2017-10-24T20:38:35.825Z,4.73
2017-10-24T20:41:03.578Z,4.90
2017-10-24T20:43:31.124Z,5.30
2017-10-24T20:45:58.713Z,6.40
2017-10-24T20:48:26.546Z,5.40
2017-10-24T20:50:54.122Z,6.20
2017-10-24T20:53:21.717Z,6.07
2017-10-24T20:55:49.311Z,6.00
2017-10-24T20:58:17.192Z,5.17
2017-10-24T21:00:44.814Z,5.23
2017-10-24T21:03:12.407Z,5.90
2017-10-24T21:05:40.203Z,5.40
2017-10-24T21:08:07.786Z,5.10
2017-10-24T21:10:35.310Z,5.47
2017-10-24T21:13:03.063Z,5.33
2017-10-24T21:15:30.650Z,5.43
2017-10-24T21:17:58.395Z,5.13
2017-10-24T21:20:26.012Z,4.43
2017-10-24T21:22:53.642Z,5.10
2017-10-24T21:25:21.218Z,5.00
2017-10-24T21:27:48.876Z,5.60
2017-10-24T21:30:16.603Z,4.40
2017-10-24T21:32:44.389Z,5.57
2017-10-24T21:35:11.929Z,5.07
2017-10-24T21:37:39.534Z,5.10
2017-10-24T21:40:07.121Z,4.77
2017-10-24T21:42:34.711Z,4.50
2017-10-24T21:45:02.314Z,5.77
2017-10-24T21:47:29.862Z,4.40
2017-10-24T21:49:57.401Z,5.10
2017-10-24T21:52:24.999Z,4.80
2017-10-24T21:54:52.612Z,5.10
2017-10-24T21:57:20.418Z,4.50
2017-10-24T21:59:48.018Z,5.30
2017-10-24T22:02:15.656Z,5.03
2017-10-24T22:04:43.166Z,4.43
2017-10-24T22:07:10.744Z,4.50
2017-10-24T22:09:38.359Z,5.13
2017-10-24T22:12:05.941Z,4.60
2017-10-24T22:14:33.798Z,4.63
2017-10-24T22:17:01.386Z,4.53
2017-10-24T22:19:29.005Z,5.00
2017-10-24T22:21:56.599Z,5.07
2017-10-24T22:24:24.193Z,4.80
2017-10-24T22:26:51.921Z,4.90
2017-10-24T22:29:19.453Z,4.77
2017-10-24T22:31:47.022Z,4.87
2017-10-24T22:34:14.559Z,4.50
2017-10-24T22:36:42.164Z,4.63
2017-10-24T22:39:09.731Z,4.80
2017-10-24T22:41:38.158Z,4.63
2017-10-24T22:44:05.892Z,4.60
2017-10-24T22:46:33.510Z,4.33
2017-10-24T22:49:01.112Z,5.50
2017-10-24T22:51:28.747Z,4.57
2017-10-24T22:53:56.947Z,5.03
2017-10-24T22:56:24.537Z,4.90
2017-10-24T22:58:52.110Z,5.07
2017-10-24T23:01:19.707Z,5.47
2017-10-24T23:03:47.466Z,4.63
2017-10-24T23:06:15.266Z,5.57
2017-10-24T23:08:42.845Z,4.97
2017-10-24T23:11:10.574Z,5.70
2017-10-24T23:13:38.122Z,5.00
2017-10-24T23:16:05.733Z,5.20
2017-10-24T23:18:33.310Z,5.83
2017-10-24T23:21:01.045Z,5.43
2017-10-24T23:23:28.651Z,4.90
2017-10-24T23:25:56.214Z,4.40
2017-10-24T23:28:23.957Z,4.83
2017-10-24T23:30:51.571Z,5.37
2017-10-24T23:33:19.339Z,4.63
2017-10-24T23:35:46.923Z,4.40
2017-10-24T23:38:14.498Z,4.40
2017-10-24T23:40:42.075Z,4.60
2017-10-24T23:43:09.995Z,5.33
2017-10-24T23:45:37.582Z,4.43
2017-10-24T23:48:05.125Z,4.23
2017-10-24T23:50:32.646Z,4.50
2017-10-24T23:53:00.264Z,4.30
2017-10-24T23:55:27.818Z,5.00
2017-10-24T23:57:55.430Z,4.97
